sensor_id;sensor_type;location;lat;lon;timestamp;P1;durP1;ratioP1;P2;durP2;ratioP2
25263;SDS011;13211;51.796;5.808;2023-04-03T00:04:21;7.90;;;2.83;;
25263;SDS011;13211;51.796;5.808;2023-04-03T00:06:54;9.05;;;2.83;;
25263;SDS011;13211;51.796;5.808;2023-04-03T00:09:25;6.45;;;2.72;;
25263;SDS011;13211;51.796;5.808;2023-04-03T00:11:53;6.32;;;2.60;;
25263;SDS011;13211;51.796;5.808;2023-04-03T00:14:24;8.20;;;3.03;;
25263;SDS011;13211;51.796;5.808;2023-04-03T00:16:55;6.38;;;3.00;;
25263;SDS011;13211;51.796;5.808;2023-04-03T00:19:24;7.88;;;2.80;;
25263;SDS011;13211;51.796;5.808;2023-04-03T00:21:53;6.35;;;3.13;;
25263;SDS011;13211;51.796;5.808;2023-04-03T00:24:21;7.75;;;2.75;;
25263;SDS011;13211;51.796;5.808;2023-04-03T00:26:50;7.47;;;2.92;;
25263;SDS011;13211;51.796;5.808;2023-04-03T00:29:19;6.10;;;3.00;;
25263;SDS011;13211;51.796;5.808;2023-04-03T00:31:47;7.65;;;3.20;;
25263;SDS011;13211;51.796;5.808;2023-04-03T00:34:16;7.63;;;3.55;;
25263;SDS011;13211;51.796;5.808;2023-04-03T00:36:44;8.20;;;3.17;;
25263;SDS011;13211;51.796;5.808;2023-04-03T00:39:12;7.72;;;3.00;;
25263;SDS011;13211;51.796;5.808;2023-04-03T00:41:41;12.90;;;3.20;;
25263;SDS011;13211;51.796;5.808;2023-04-03T00:46:55;8.98;;;3.35;;
25263;SDS011;13211;51.796;5.808;2023-04-03T00:49:24;10.23;;;3.00;;
25263;SDS011;13211;51.796;5.808;2023-04-03T00:51:55;9.40;;;3.20;;
25263;SDS011;13211;51.796;5.808;2023-04-03T00:54:27;9.27;;;3.15;;
25263;SDS011;13211;51.796;5.808;2023-04-03T00:56:58;6.82;;;3.22;;
25263;SDS011;13211;51.796;5.808;2023-04-03T00:59:30;8.93;;;2.92;;
25263;SDS011;13211;51.796;5.808;2023-04-03T01:02:04;6.85;;;3.03;;
25263;SDS011;13211;51.796;5.808;2023-04-03T01:04:43;8.90;;;3.47;;
25263;SDS011;13211;51.796;5.808;2023-04-03T01:07:15;8.05;;;3.05;;
25263;SDS011;13211;51.796;5.808;2023-04-03T01:09:47;8.13;;;3.35;;
25263;SDS011;13211;51.796;5.808;2023-04-03T01:12:28;9.63;;;3.22;;
25263;SDS011;13211;51.796;5.808;2023-04-03T01:15:02;13.70;;;3.08;;
25263;SDS011;13211;51.796;5.808;2023-04-03T01:17:40;7.00;;;3.15;;
25263;SDS011;13211;51.796;5.808;2023-04-03T01:26:08;10.05;;;3.15;;
25263;SDS011;13211;51.796;5.808;2023-04-03T01:28:38;5.63;;;3.17;;
25263;SDS011;13211;51.796;5.808;2023-04-03T01:31:26;6.35;;;2.75;;
25263;SDS011;13211;51.796;5.808;2023-04-03T01:33:55;9.00;;;3.30;;
25263;SDS011;13211;51.796;5.808;2023-04-03T01:36:25;8.77;;;3.22;;
25263;SDS011;13211;51.796;5.808;2023-04-03T01:38:54;9.35;;;3.05;;
25263;SDS011;13211;51.796;5.808;2023-04-03T01:41:23;6.43;;;3.20;;
25263;SDS011;13211;51.796;5.808;2023-04-03T01:43:57;5.88;;;2.90;;
25263;SDS011;13211;51.796;5.808;2023-04-03T01:46:25;13.35;;;3.80;;
25263;SDS011;13211;51.796;5.808;2023-04-03T01:48:53;7.18;;;3.38;;
25263;SDS011;13211;51.796;5.808;2023-04-03T01:51:25;10.25;;;3.58;;
25263;SDS011;13211;51.796;5.808;2023-04-03T01:53:54;10.55;;;3.30;;
25263;SDS011;13211;51.796;5.808;2023-04-03T01:56:28;6.93;;;3.05;;
25263;SDS011;13211;51.796;5.808;2023-04-03T01:58:56;9.35;;;3.10;;
25263;SDS011;13211;51.796;5.808;2023-04-03T02:01:27;7.85;;;3.50;;
25263;SDS011;13211;51.796;5.808;2023-04-03T02:03:55;6.43;;;3.05;;
25263;SDS011;13211;51.796;5.808;2023-04-03T02:06:28;10.65;;;3.10;;
25263;SDS011;13211;51.796;5.808;2023-04-03T02:08:56;9.90;;;3.20;;
25263;SDS011;13211;51.796;5.808;2023-04-03T02:11:24;4.38;;;2.75;;
25263;SDS011;13211;51.796;5.808;2023-04-03T02:14:05;7.50;;;2.90;;
25263;SDS011;13211;51.796;5.808;2023-04-03T02:16:33;9.43;;;3.35;;
25263;SDS011;13211;51.796;5.808;2023-04-03T02:19:02;11.98;;;3.05;;
25263;SDS011;13211;51.796;5.808;2023-04-03T02:21:30;6.25;;;3.00;;
25263;SDS011;13211;51.796;5.808;2023-04-03T02:23:58;5.90;;;2.80;;
25263;SDS011;13211;51.796;5.808;2023-04-03T02:26:26;8.57;;;2.90;;
25263;SDS011;13211;51.796;5.808;2023-04-03T02:28:53;7.50;;;2.78;;
25263;SDS011;13211;51.796;5.808;2023-04-03T02:31:30;7.25;;;3.00;;
25263;SDS011;13211;51.796;5.808;2023-04-03T02:34:00;5.97;;;2.58;;
25263;SDS011;13211;51.796;5.808;2023-04-03T02:36:39;7.37;;;2.67;;
25263;SDS011;13211;51.796;5.808;2023-04-03T02:39:09;7.03;;;2.93;;
25263;SDS011;13211;51.796;5.808;2023-04-03T02:41:43;8.02;;;3.10;;
25263;SDS011;13211;51.796;5.808;2023-04-03T02:44:18;7.82;;;2.60;;
25263;SDS011;13211;51.796;5.808;2023-04-03T02:46:53;6.43;;;2.97;;
25263;SDS011;13211;51.796;5.808;2023-04-03T02:49:30;10.15;;;2.90;;
25263;SDS011;13211;51.796;5.808;2023-04-03T02:52:14;5.40;;;2.72;;
25263;SDS011;13211;51.796;5.808;2023-04-03T02:54:43;9.45;;;2.72;;
25263;SDS011;13211;51.796;5.808;2023-04-03T02:57:11;7.68;;;3.08;;
25263;SDS011;13211;51.796;5.808;2023-04-03T02:59:40;13.55;;;3.03;;
25263;SDS011;13211;51.796;5.808;2023-04-03T03:02:12;11.05;;;2.85;;
25263;SDS011;13211;51.796;5.808;2023-04-03T03:04:40;7.85;;;2.40;;
25263;SDS011;13211;51.796;5.808;2023-04-03T03:07:11;11.32;;;2.85;;
25263;SDS011;13211;51.796;5.808;2023-04-03T03:09:40;13.80;;;3.05;;
25263;SDS011;13211;51.796;5.808;2023-04-03T03:12:08;7.18;;;2.90;;
25263;SDS011;13211;51.796;5.808;2023-04-03T03:14:36;8.52;;;2.85;;
25263;SDS011;13211;51.796;5.808;2023-04-03T03:17:03;9.65;;;3.00;;
25263;SDS011;13211;51.796;5.808;2023-04-03T03:19:33;9.95;;;3.90;;
25263;SDS011;13211;51.796;5.808;2023-04-03T03:22:00;9.25;;;2.92;;
25263;SDS011;13211;51.796;5.808;2023-04-03T03:24:29;7.03;;;2.97;;
25263;SDS011;13211;51.796;5.808;2023-04-03T03:26:57;6.45;;;2.50;;
25263;SDS011;13211;51.796;5.808;2023-04-03T03:29:25;7.50;;;2.85;;
25263;SDS011;13211;51.796;5.808;2023-04-03T03:31:53;7.25;;;2.67;;
25263;SDS011;13211;51.796;5.808;2023-04-03T03:34:22;11.77;;;3.13;;
25263;SDS011;13211;51.796;5.808;2023-04-03T03:36:50;7.53;;;3.13;;
25263;SDS011;13211;51.796;5.808;2023-04-03T03:39:19;10.35;;;2.95;;
25263;SDS011;13211;51.796;5.808;2023-04-03T03:41:47;7.90;;;3.25;;
25263;SDS011;13211;51.796;5.808;2023-04-03T03:44:18;11.13;;;3.22;;
25263;SDS011;13211;51.796;5.808;2023-04-03T03:46:46;11.48;;;3.97;;
25263;SDS011;13211;51.796;5.808;2023-04-03T03:49:13;8.93;;;3.95;;
25263;SDS011;13211;51.796;5.808;2023-04-03T03:51:42;8.27;;;3.40;;
25263;SDS011;13211;51.796;5.808;2023-04-03T03:54:12;10.23;;;3.97;;
25263;SDS011;13211;51.796;5.808;2023-04-03T03:56:40;8.77;;;3.87;;
25263;SDS011;13211;51.796;5.808;2023-04-03T03:59:10;8.88;;;3.30;;
25263;SDS011;13211;51.796;5.808;2023-04-03T04:01:42;10.23;;;3.53;;
25263;SDS011;13211;51.796;5.808;2023-04-03T04:04:10;12.98;;;3.25;;
25263;SDS011;13211;51.796;5.808;2023-04-03T04:06:38;8.10;;;3.30;;
25263;SDS011;13211;51.796;5.808;2023-04-03T04:09:09;9.05;;;3.30;;
25263;SDS011;13211;51.796;5.808;2023-04-03T04:11:37;8.02;;;3.33;;
25263;SDS011;13211;51.796;5.808;2023-04-03T04:14:08;6.28;;;2.58;;
25263;SDS011;13211;51.796;5.808;2023-04-03T04:16:40;8.43;;;3.08;;
25263;SDS011;13211;51.796;5.808;2023-04-03T04:19:14;14.27;;;2.88;;
25263;SDS011;13211;51.796;5.808;2023-04-03T04:21:43;10.55;;;2.83;;
25263;SDS011;13211;51.796;5.808;2023-04-03T04:24:13;8.20;;;4.50;;
25263;SDS011;13211;51.796;5.808;2023-04-03T04:26:41;9.35;;;3.20;;
25263;SDS011;13211;51.796;5.808;2023-04-03T04:29:11;10.10;;;3.10;;
25263;SDS011;13211;51.796;5.808;2023-04-03T04:31:39;6.07;;;3.22;;
25263;SDS011;13211;51.796;5.808;2023-04-03T04:34:07;17.17;;;3.60;;
25263;SDS011;13211;51.796;5.808;2023-04-03T04:36:37;7.00;;;3.30;;
25263;SDS011;13211;51.796;5.808;2023-04-03T04:39:05;15.95;;;3.95;;
25263;SDS011;13211;51.796;5.808;2023-04-03T04:41:33;9.85;;;3.72;;
25263;SDS011;13211;51.796;5.808;2023-04-03T04:44:03;10.93;;;3.30;;
25263;SDS011;13211;51.796;5.808;2023-04-03T04:46:31;11.18;;;3.17;;
25263;SDS011;13211;51.796;5.808;2023-04-03T04:48:59;10.65;;;3.45;;
25263;SDS011;13211;51.796;5.808;2023-04-03T04:51:29;9.80;;;3.60;;
25263;SDS011;13211;51.796;5.808;2023-04-03T04:54:15;8.63;;;3.35;;
25263;SDS011;13211;51.796;5.808;2023-04-03T04:56:46;6.38;;;3.17;;
25263;SDS011;13211;51.796;5.808;2023-04-03T04:59:15;13.02;;;3.58;;
25263;SDS011;13211;51.796;5.808;2023-04-03T05:01:44;7.20;;;3.50;;
25263;SDS011;13211;51.796;5.808;2023-04-03T05:04:15;8.48;;;3.20;;
25263;SDS011;13211;51.796;5.808;2023-04-03T05:06:46;10.98;;;3.42;;
25263;SDS011;13211;51.796;5.808;2023-04-03T05:09:19;17.60;;;3.58;;
25263;SDS011;13211;51.796;5.808;2023-04-03T05:11:48;13.63;;;3.53;;
25263;SDS011;13211;51.796;5.808;2023-04-03T05:14:19;7.55;;;3.38;;
25263;SDS011;13211;51.796;5.808;2023-04-03T05:16:49;14.75;;;3.20;;
25263;SDS011;13211;51.796;5.808;2023-04-03T05:19:24;9.82;;;3.72;;
25263;SDS011;13211;51.796;5.808;2023-04-03T05:21:53;8.10;;;3.13;;
25263;SDS011;13211;51.796;5.808;2023-04-03T05:24:28;12.10;;;3.45;;
25263;SDS011;13211;51.796;5.808;2023-04-03T05:26:56;13.07;;;3.80;;
25263;SDS011;13211;51.796;5.808;2023-04-03T05:29:28;10.10;;;3.70;;
25263;SDS011;13211;51.796;5.808;2023-04-03T05:31:58;9.48;;;3.72;;
25263;SDS011;13211;51.796;5.808;2023-04-03T05:34:26;12.88;;;3.70;;
25263;SDS011;13211;51.796;5.808;2023-04-03T05:36:55;12.13;;;3.85;;
25263;SDS011;13211;51.796;5.808;2023-04-03T05:39:24;11.65;;;3.97;;
25263;SDS011;13211;51.796;5.808;2023-04-03T05:41:53;9.70;;;4.00;;
25263;SDS011;13211;51.796;5.808;2023-04-03T05:44:21;10.13;;;3.97;;
25263;SDS011;13211;51.796;5.808;2023-04-03T05:46:53;11.13;;;3.40;;
25263;SDS011;13211;51.796;5.808;2023-04-03T05:49:21;12.25;;;3.53;;
25263;SDS011;13211;51.796;5.808;2023-04-03T05:51:50;10.23;;;3.63;;
25263;SDS011;13211;51.796;5.808;2023-04-03T05:54:24;11.07;;;3.83;;
25263;SDS011;13211;51.796;5.808;2023-04-03T05:56:59;9.23;;;3.70;;
25263;SDS011;13211;51.796;5.808;2023-04-03T05:59:27;11.38;;;3.78;;
25263;SDS011;13211;51.796;5.808;2023-04-03T06:01:57;8.93;;;3.13;;
25263;SDS011;13211;51.796;5.808;2023-04-03T06:04:25;13.57;;;3.67;;
25263;SDS011;13211;51.796;5.808;2023-04-03T06:06:55;11.38;;;3.30;;
25263;SDS011;13211;51.796;5.808;2023-04-03T06:09:26;13.95;;;3.53;;
25263;SDS011;13211;51.796;5.808;2023-04-03T06:11:55;12.63;;;3.63;;
25263;SDS011;13211;51.796;5.808;2023-04-03T06:14:26;10.38;;;3.25;;
25263;SDS011;13211;51.796;5.808;2023-04-03T06:16:54;11.35;;;3.40;;
25263;SDS011;13211;51.796;5.808;2023-04-03T06:19:26;10.85;;;3.50;;
25263;SDS011;13211;51.796;5.808;2023-04-03T06:21:56;12.70;;;3.97;;
25263;SDS011;13211;51.796;5.808;2023-04-03T06:24:24;13.07;;;3.70;;
25263;SDS011;13211;51.796;5.808;2023-04-03T06:26:53;12.10;;;3.53;;
25263;SDS011;13211;51.796;5.808;2023-04-03T06:29:21;13.80;;;3.90;;
25263;SDS011;13211;51.796;5.808;2023-04-03T06:31:53;13.55;;;3.53;;
25263;SDS011;13211;51.796;5.808;2023-04-03T06:34:21;7.43;;;3.53;;
25263;SDS011;13211;51.796;5.808;2023-04-03T06:36:50;10.25;;;3.55;;
25263;SDS011;13211;51.796;5.808;2023-04-03T06:39:19;8.75;;;3.28;;
25263;SDS011;13211;51.796;5.808;2023-04-03T06:41:49;9.77;;;2.60;;
25263;SDS011;13211;51.796;5.808;2023-04-03T06:44:26;10.73;;;3.50;;
25263;SDS011;13211;51.796;5.808;2023-04-03T06:46:54;8.55;;;3.10;;
25263;SDS011;13211;51.796;5.808;2023-04-03T06:49:23;7.78;;;2.45;;
25263;SDS011;13211;51.796;5.808;2023-04-03T06:51:55;11.10;;;3.25;;
25263;SDS011;13211;51.796;5.808;2023-04-03T06:54:23;8.93;;;3.72;;
25263;SDS011;13211;51.796;5.808;2023-04-03T06:56:51;9.50;;;2.70;;
25263;SDS011;13211;51.796;5.808;2023-04-03T06:59:20;9.45;;;2.92;;
25263;SDS011;13211;51.796;5.808;2023-04-03T07:01:48;8.50;;;3.15;;
25263;SDS011;13211;51.796;5.808;2023-04-03T07:04:16;10.73;;;3.22;;
25263;SDS011;13211;51.796;5.808;2023-04-03T07:06:45;10.13;;;3.08;;
25263;SDS011;13211;51.796;5.808;2023-04-03T07:09:14;12.25;;;3.33;;
25263;SDS011;13211;51.796;5.808;2023-04-03T07:11:42;10.15;;;3.42;;
25263;SDS011;13211;51.796;5.808;2023-04-03T07:14:09;14.70;;;3.00;;
25263;SDS011;13211;51.796;5.808;2023-04-03T07:16:41;12.57;;;3.05;;
25263;SDS011;13211;51.796;5.808;2023-04-03T07:19:09;9.35;;;2.38;;
25263;SDS011;13211;51.796;5.808;2023-04-03T07:21:36;7.78;;;2.45;;
25263;SDS011;13211;51.796;5.808;2023-04-03T07:24:04;7.43;;;2.28;;
25263;SDS011;13211;51.796;5.808;2023-04-03T07:26:35;7.05;;;2.38;;
25263;SDS011;13211;51.796;5.808;2023-04-03T07:29:03;11.50;;;2.40;;
25263;SDS011;13211;51.796;5.808;2023-04-03T07:31:32;13.52;;;3.13;;
25263;SDS011;13211;51.796;5.808;2023-04-03T07:34:01;10.80;;;2.53;;
25263;SDS011;13211;51.796;5.808;2023-04-03T07:36:30;11.30;;;3.47;;
25263;SDS011;13211;51.796;5.808;2023-04-03T07:39:01;9.80;;;2.83;;
25263;SDS011;13211;51.796;5.808;2023-04-03T07:41:29;11.00;;;2.95;;
25263;SDS011;13211;51.796;5.808;2023-04-03T07:43:58;9.55;;;2.17;;
25263;SDS011;13211;51.796;5.808;2023-04-03T07:46:25;5.60;;;2.10;;
25263;SDS011;13211;51.796;5.808;2023-04-03T07:48:55;13.20;;;3.72;;
25263;SDS011;13211;51.796;5.808;2023-04-03T07:51:24;9.25;;;2.08;;
25263;SDS011;13211;51.796;5.808;2023-04-03T07:53:54;7.80;;;2.75;;
25263;SDS011;13211;51.796;5.808;2023-04-03T07:56:23;8.65;;;2.13;;
25263;SDS011;13211;51.796;5.808;2023-04-03T07:58:51;5.28;;;1.52;;
25263;SDS011;13211;51.796;5.808;2023-04-03T08:01:21;7.65;;;2.10;;
25263;SDS011;13211;51.796;5.808;2023-04-03T08:06:20;7.00;;;1.65;;
25263;SDS011;13211;51.796;5.808;2023-04-03T08:09:09;9.65;;;1.85;;
25263;SDS011;13211;51.796;5.808;2023-04-03T08:11:38;5.40;;;2.00;;
25263;SDS011;13211;51.796;5.808;2023-04-03T08:14:07;7.53;;;2.50;;
25263;SDS011;13211;51.796;5.808;2023-04-03T08:16:44;9.32;;;1.73;;
25263;SDS011;13211;51.796;5.808;2023-04-03T08:19:12;6.13;;;1.85;;
25263;SDS011;13211;51.796;5.808;2023-04-03T08:21:52;6.80;;;1.50;;
25263;SDS011;13211;51.796;5.808;2023-04-03T08:24:21;6.72;;;1.70;;
25263;SDS011;13211;51.796;5.808;2023-04-03T08:26:55;6.63;;;1.65;;
25263;SDS011;13211;51.796;5.808;2023-04-03T08:29:23;5.47;;;2.13;;
25263;SDS011;13211;51.796;5.808;2023-04-03T08:31:55;10.68;;;1.83;;
25263;SDS011;13211;51.796;5.808;2023-04-03T08:34:24;11.82;;;2.63;;
25263;SDS011;13211;51.796;5.808;2023-04-03T08:36:54;6.50;;;2.10;;
25263;SDS011;13211;51.796;5.808;2023-04-03T08:39:23;6.93;;;2.03;;
25263;SDS011;13211;51.796;5.808;2023-04-03T08:41:51;7.05;;;2.00;;
25263;SDS011;13211;51.796;5.808;2023-04-03T08:44:39;3.38;;;1.75;;
25263;SDS011;13211;51.796;5.808;2023-04-03T08:52:18;10.18;;;2.28;;
25263;SDS011;13211;51.796;5.808;2023-04-03T08:54:49;4.82;;;1.40;;
25263;SDS011;13211;51.796;5.808;2023-04-03T08:57:31;2.72;;;1.08;;
25263;SDS011;13211;51.796;5.808;2023-04-03T09:00:05;7.53;;;1.50;;
25263;SDS011;13211;51.796;5.808;2023-04-03T09:05:18;9.68;;;2.13;;
25263;SDS011;13211;51.796;5.808;2023-04-03T09:07:51;3.85;;;1.35;;
25263;SDS011;13211;51.796;5.808;2023-04-03T09:10:23;5.82;;;1.85;;
25263;SDS011;13211;51.796;5.808;2023-04-03T09:15:45;3.30;;;1.38;;
25263;SDS011;13211;51.796;5.808;2023-04-03T09:18:30;1.85;;;0.95;;
25263;SDS011;13211;51.796;5.808;2023-04-03T09:23:53;1.25;;;0.60;;
25263;SDS011;13211;51.796;5.808;2023-04-03T09:26:28;1.30;;;0.63;;
25263;SDS011;13211;51.796;5.808;2023-04-03T09:28:57;1.95;;;0.70;;
25263;SDS011;13211;51.796;5.808;2023-04-03T09:31:28;3.63;;;0.82;;
25263;SDS011;13211;51.796;5.808;2023-04-03T09:34:02;3.35;;;0.82;;
25263;SDS011;13211;51.796;5.808;2023-04-03T09:39:07;3.75;;;0.70;;
25263;SDS011;13211;51.796;5.808;2023-04-03T09:41:37;2.50;;;0.63;;
25263;SDS011;13211;51.796;5.808;2023-04-03T09:44:20;3.25;;;0.70;;
25263;SDS011;13211;51.796;5.808;2023-04-03T09:46:50;2.58;;;0.77;;
25263;SDS011;13211;51.796;5.808;2023-04-03T09:49:19;1.13;;;0.60;;
25263;SDS011;13211;51.796;5.808;2023-04-03T09:51:55;4.38;;;0.90;;
25263;SDS011;13211;51.796;5.808;2023-04-03T09:54:35;4.13;;;0.80;;
25263;SDS011;13211;51.796;5.808;2023-04-03T09:59:32;2.05;;;0.50;;
25263;SDS011;13211;51.796;5.808;2023-04-03T10:04:48;3.30;;;0.73;;
25263;SDS011;13211;51.796;5.808;2023-04-03T10:07:35;1.75;;;0.50;;
25263;SDS011;13211;51.796;5.808;2023-04-03T10:10:18;1.90;;;0.63;;
25263;SDS011;13211;51.796;5.808;2023-04-03T10:12:47;2.70;;;0.52;;
25263;SDS011;13211;51.796;5.808;2023-04-03T10:15:17;1.17;;;0.52;;
25263;SDS011;13211;51.796;5.808;2023-04-03T10:17:51;2.13;;;0.60;;
25263;SDS011;13211;51.796;5.808;2023-04-03T10:20:27;2.13;;;0.70;;
25263;SDS011;13211;51.796;5.808;2023-04-03T10:23:14;0.70;;;0.50;;
25263;SDS011;13211;51.796;5.808;2023-04-03T10:25:50;2.38;;;0.73;;
25263;SDS011;13211;51.796;5.808;2023-04-03T10:28:28;1.58;;;0.57;;
25263;SDS011;13211;51.796;5.808;2023-04-03T10:36:28;1.38;;;0.40;;
25263;SDS011;13211;51.796;5.808;2023-04-03T10:46:38;5.50;;;2.10;;
25263;SDS011;13211;51.796;5.808;2023-04-03T10:49:12;4.15;;;0.50;;
25263;SDS011;13211;51.796;5.808;2023-04-03T10:51:45;2.05;;;0.68;;
25263;SDS011;13211;51.796;5.808;2023-04-03T10:56:51;1.95;;;0.77;;
25263;SDS011;13211;51.796;5.808;2023-04-03T11:04:55;4.03;;;0.73;;
25263;SDS011;13211;51.796;5.808;2023-04-03T11:07:26;4.13;;;0.80;;
25263;SDS011;13211;51.796;5.808;2023-04-03T11:10:02;3.33;;;0.77;;
25263;SDS011;13211;51.796;5.808;2023-04-03T11:12:36;1.48;;;0.57;;
25263;SDS011;13211;51.796;5.808;2023-04-03T11:15:10;1.77;;;0.68;;
25263;SDS011;13211;51.796;5.808;2023-04-03T11:17:40;2.67;;;0.65;;
25263;SDS011;13211;51.796;5.808;2023-04-03T11:20:17;1.45;;;0.60;;
25263;SDS011;13211;51.796;5.808;2023-04-03T11:22:48;2.92;;;0.90;;
25263;SDS011;13211;51.796;5.808;2023-04-03T11:25:22;3.50;;;1.30;;
25263;SDS011;13211;51.796;5.808;2023-04-03T11:35:19;4.30;;;1.10;;
25263;SDS011;13211;51.796;5.808;2023-04-03T11:37:51;6.85;;;1.42;;
25263;SDS011;13211;51.796;5.808;2023-04-03T11:40:25;3.78;;;1.15;;
25263;SDS011;13211;51.796;5.808;2023-04-03T11:42:55;2.38;;;0.70;;
25263;SDS011;13211;51.796;5.808;2023-04-03T11:51:02;4.93;;;1.40;;
25263;SDS011;13211;51.796;5.808;2023-04-03T11:53:51;2.43;;;0.80;;
25263;SDS011;13211;51.796;5.808;2023-04-03T12:04:12;4.85;;;1.17;;
25263;SDS011;13211;51.796;5.808;2023-04-03T12:06:48;3.92;;;0.90;;
25263;SDS011;13211;51.796;5.808;2023-04-03T12:09:26;2.40;;;0.75;;
25263;SDS011;13211;51.796;5.808;2023-04-03T12:11:55;4.05;;;1.20;;
25263;SDS011;13211;51.796;5.808;2023-04-03T12:14:25;7.03;;;1.52;;
25263;SDS011;13211;51.796;5.808;2023-04-03T12:16:54;3.35;;;1.17;;
25263;SDS011;13211;51.796;5.808;2023-04-03T12:19:36;5.47;;;1.27;;
25263;SDS011;13211;51.796;5.808;2023-04-03T12:22:11;3.65;;;1.02;;
25263;SDS011;13211;51.796;5.808;2023-04-03T12:24:40;2.67;;;1.20;;
25263;SDS011;13211;51.796;5.808;2023-04-03T12:27:15;3.78;;;1.02;;
25263;SDS011;13211;51.796;5.808;2023-04-03T12:33:18;2.42;;;0.82;;
25263;SDS011;13211;51.796;5.808;2023-04-03T12:45:52;4.45;;;1.15;;
25263;SDS011;13211;51.796;5.808;2023-04-03T12:48:25;5.82;;;1.42;;
25263;SDS011;13211;51.796;5.808;2023-04-03T12:50:53;4.15;;;1.30;;
25263;SDS011;13211;51.796;5.808;2023-04-03T12:53:32;4.90;;;1.10;;
25263;SDS011;13211;51.796;5.808;2023-04-03T12:56:21;5.25;;;1.25;;
25263;SDS011;13211;51.796;5.808;2023-04-03T12:58:50;3.08;;;1.10;;
25263;SDS011;13211;51.796;5.808;2023-04-03T13:01:27;3.25;;;1.10;;
25263;SDS011;13211;51.796;5.808;2023-04-03T13:03:57;3.85;;;1.50;;
25263;SDS011;13211;51.796;5.808;2023-04-03T13:06:27;4.45;;;1.33;;
25263;SDS011;13211;51.796;5.808;2023-04-03T13:08:58;4.53;;;1.63;;
25263;SDS011;13211;51.796;5.808;2023-04-03T13:11:39;2.85;;;1.33;;
25263;SDS011;13211;51.796;5.808;2023-04-03T13:14:15;3.65;;;1.20;;
25263;SDS011;13211;51.796;5.808;2023-04-03T13:19:23;3.97;;;1.23;;
25263;SDS011;13211;51.796;5.808;2023-04-03T13:22:03;4.30;;;1.27;;
25263;SDS011;13211;51.796;5.808;2023-04-03T13:24:33;5.75;;;1.88;;
25263;SDS011;13211;51.796;5.808;2023-04-03T13:27:01;8.80;;;0.93;;
25263;SDS011;13211;51.796;5.808;2023-04-03T13:29:34;4.78;;;1.30;;
25263;SDS011;13211;51.796;5.808;2023-04-03T13:32:06;3.95;;;1.10;;
25263;SDS011;13211;51.796;5.808;2023-04-03T13:34:43;3.42;;;1.45;;
25263;SDS011;13211;51.796;5.808;2023-04-03T13:40:12;3.88;;;1.10;;
25263;SDS011;13211;51.796;5.808;2023-04-03T13:42:40;4.45;;;1.48;;
25263;SDS011;13211;51.796;5.808;2023-04-03T13:50:14;2.92;;;0.90;;
25263;SDS011;13211;51.796;5.808;2023-04-03T13:52:44;3.85;;;1.20;;
25263;SDS011;13211;51.796;5.808;2023-04-03T13:55:24;3.65;;;0.98;;
25263;SDS011;13211;51.796;5.808;2023-04-03T14:03:22;2.75;;;0.90;;
25263;SDS011;13211;51.796;5.808;2023-04-03T14:05:54;3.80;;;1.10;;
25263;SDS011;13211;51.796;5.808;2023-04-03T14:08:26;4.78;;;1.10;;
25263;SDS011;13211;51.796;5.808;2023-04-03T14:11:26;3.45;;;1.40;;
25263;SDS011;13211;51.796;5.808;2023-04-03T14:13:55;5.20;;;1.10;;
25263;SDS011;13211;51.796;5.808;2023-04-03T14:16:26;4.00;;;1.30;;
25263;SDS011;13211;51.796;5.808;2023-04-03T14:18:55;5.15;;;1.15;;
25263;SDS011;13211;51.796;5.808;2023-04-03T14:21:23;3.35;;;1.10;;
25263;SDS011;13211;51.796;5.808;2023-04-03T14:23:53;3.67;;;1.35;;
25263;SDS011;13211;51.796;5.808;2023-04-03T14:26:22;4.45;;;1.30;;
25263;SDS011;13211;51.796;5.808;2023-04-03T14:28:52;3.05;;;1.17;;
25263;SDS011;13211;51.796;5.808;2023-04-03T14:31:20;6.38;;;1.17;;
25263;SDS011;13211;51.796;5.808;2023-04-03T14:33:53;4.78;;;1.23;;
25263;SDS011;13211;51.796;5.808;2023-04-03T14:36:23;4.72;;;1.50;;
25263;SDS011;13211;51.796;5.808;2023-04-03T14:38:53;3.88;;;1.10;;
25263;SDS011;13211;51.796;5.808;2023-04-03T14:41:24;9.07;;;1.75;;
25263;SDS011;13211;51.796;5.808;2023-04-03T14:43:53;4.18;;;1.35;;
25263;SDS011;13211;51.796;5.808;2023-04-03T14:46:32;3.45;;;1.20;;
25263;SDS011;13211;51.796;5.808;2023-04-03T14:49:21;5.75;;;1.40;;
25263;SDS011;13211;51.796;5.808;2023-04-03T14:51:57;4.78;;;1.30;;
25263;SDS011;13211;51.796;5.808;2023-04-03T14:54:25;6.70;;;1.75;;
25263;SDS011;13211;51.796;5.808;2023-04-03T14:56:55;3.45;;;1.23;;
25263;SDS011;13211;51.796;5.808;2023-04-03T14:59:23;6.82;;;1.30;;
25263;SDS011;13211;51.796;5.808;2023-04-03T15:01:51;4.10;;;1.40;;
25263;SDS011;13211;51.796;5.808;2023-04-03T15:04:20;3.97;;;1.35;;
25263;SDS011;13211;51.796;5.808;2023-04-03T15:06:49;3.60;;;1.10;;
25263;SDS011;13211;51.796;5.808;2023-04-03T15:09:21;5.10;;;1.20;;
25263;SDS011;13211;51.796;5.808;2023-04-03T15:11:51;4.22;;;1.25;;
25263;SDS011;13211;51.796;5.808;2023-04-03T15:14:20;4.70;;;1.45;;
25263;SDS011;13211;51.796;5.808;2023-04-03T15:17:03;5.15;;;1.48;;
25263;SDS011;13211;51.796;5.808;2023-04-03T15:19:35;9.90;;;1.30;;
25263;SDS011;13211;51.796;5.808;2023-04-03T15:22:04;5.28;;;1.30;;
25263;SDS011;13211;51.796;5.808;2023-04-03T15:24:32;4.38;;;1.30;;
25263;SDS011;13211;51.796;5.808;2023-04-03T15:27:00;3.58;;;1.20;;
25263;SDS011;13211;51.796;5.808;2023-04-03T15:29:28;4.53;;;1.50;;
25263;SDS011;13211;51.796;5.808;2023-04-03T15:31:55;6.18;;;1.42;;
25263;SDS011;13211;51.796;5.808;2023-04-03T15:34:24;8.95;;;1.30;;
25263;SDS011;13211;51.796;5.808;2023-04-03T15:36:53;6.60;;;1.48;;
25263;SDS011;13211;51.796;5.808;2023-04-03T15:39:21;4.00;;;1.40;;
25263;SDS011;13211;51.796;5.808;2023-04-03T15:41:52;4.22;;;1.48;;
25263;SDS011;13211;51.796;5.808;2023-04-03T15:44:21;7.15;;;1.38;;
25263;SDS011;13211;51.796;5.808;2023-04-03T15:46:50;3.45;;;1.20;;
25263;SDS011;13211;51.796;5.808;2023-04-03T15:49:19;4.47;;;1.30;;
25263;SDS011;13211;51.796;5.808;2023-04-03T15:51:57;5.03;;;1.30;;
25263;SDS011;13211;51.796;5.808;2023-04-03T15:54:25;4.18;;;1.30;;
25263;SDS011;13211;51.796;5.808;2023-04-03T15:56:55;5.40;;;1.52;;
25263;SDS011;13211;51.796;5.808;2023-04-03T15:59:25;4.68;;;1.45;;
25263;SDS011;13211;51.796;5.808;2023-04-03T16:02:08;5.30;;;1.48;;
25263;SDS011;13211;51.796;5.808;2023-04-03T16:04:39;4.05;;;1.40;;
25263;SDS011;13211;51.796;5.808;2023-04-03T16:07:11;4.60;;;1.30;;
25263;SDS011;13211;51.796;5.808;2023-04-03T16:09:38;3.25;;;1.20;;
25263;SDS011;13211;51.796;5.808;2023-04-03T16:12:06;5.70;;;1.20;;
25263;SDS011;13211;51.796;5.808;2023-04-03T16:14:34;3.97;;;1.17;;
25263;SDS011;13211;51.796;5.808;2023-04-03T16:17:02;3.97;;;1.48;;
25263;SDS011;13211;51.796;5.808;2023-04-03T16:19:30;7.18;;;1.55;;
25263;SDS011;13211;51.796;5.808;2023-04-03T16:21:59;4.53;;;1.58;;
25263;SDS011;13211;51.796;5.808;2023-04-03T16:24:27;8.93;;;1.70;;
25263;SDS011;13211;51.796;5.808;2023-04-03T16:26:54;5.00;;;1.30;;
25263;SDS011;13211;51.796;5.808;2023-04-03T16:29:24;7.47;;;1.55;;
25263;SDS011;13211;51.796;5.808;2023-04-03T16:31:51;6.32;;;1.45;;
25263;SDS011;13211;51.796;5.808;2023-04-03T16:34:21;3.25;;;1.15;;
25263;SDS011;13211;51.796;5.808;2023-04-03T16:36:52;5.68;;;1.40;;
25263;SDS011;13211;51.796;5.808;2023-04-03T16:39:21;5.17;;;1.27;;
25263;SDS011;13211;51.796;5.808;2023-04-03T16:41:50;4.53;;;1.45;;
25263;SDS011;13211;51.796;5.808;2023-04-03T16:44:18;3.53;;;1.40;;
25263;SDS011;13211;51.796;5.808;2023-04-03T16:46:46;7.32;;;1.52;;
25263;SDS011;13211;51.796;5.808;2023-04-03T16:49:14;4.95;;;1.40;;
25263;SDS011;13211;51.796;5.808;2023-04-03T16:51:42;4.68;;;1.30;;
25263;SDS011;13211;51.796;5.808;2023-04-03T16:54:11;4.20;;;1.30;;
25263;SDS011;13211;51.796;5.808;2023-04-03T16:56:40;3.43;;;1.17;;